Share

Deering, MO

Kennett E911 (KMOKENNE2) Elev 269 ft | 36.24 °N, 90.06 °W | Change Station
Active Advisory: Flood Advisory Active Notice: Record Report

Current weather conditions updated 18 seconds ago

Scattered Clouds
Scattered Clouds
68.0 °F
Feels Like 68.0 °F
N
2.0
Wind Variable Wind from ESE
Gusts 6.0 mph
Sunrise 6:23 AM
Sunset 7:35 PM
Moon Waning Gibbous

Tomorrow is forecast to be nearly the same temperature as today.

Pressure 30.23 in
Visibility 10.0 miles
Clouds Scattered Clouds 25000 ft
Dew Point 46 °F
Humidity 45%
Rainfall 0.00 in
Snow Depth Not available.
UV 7 out of 16
Pollen 9.70 out of 12
Air Quality Not available.
Flu Activity Sporadic
METAR KBYH 171952Z 15007KT 10SM SCT250 20/05 A3023

More Conditions Fewer Conditions

Pressure 30.23 in
Visibility 10.0 miles
Clouds Scattered Clouds 25000 ft
Dew Point 46 °F
Humidity 45%
Rainfall 0.00 in
Snow Depth Not available.
UV 7 out of 16
Pollen 9.70 out of 12
Air Quality Not available.
Flu Activity Sporadic
METAR KBYH 171952Z 15007KT 10SM SCT250 20/05 A3023

More Conditions Fewer Conditions

10-Day Forecast

Almanac

Astronomy

Apr. 17, 2014 Rise Set
Actual Time 6:23 AM CDT 7:35 PM CDT
Civil Twilight 5:56 AM CDT 8:01 PM CDT
Nautical Twilight 5:25 AM CDT 8:33 PM CDT
Astronomical Twilight 4:52 AM CDT 9:06 PM CDT
Moon 10:17 PM CDT 7:58 AM CDT
Length of Visible Light 14h 04m
Length of Day
13h 11m
Tomorrow will be 2m 9s longer.
Waning Gibbous, 92% of the Moon is Illuminated
Today
Waning Gibbous
Apr 22
Last Quarter
Apr 29
New
May 6
First Quarter
May 14
Full

Today's Extremes

State Highs State Lows

Community

  • Morning Light
    Morning Light
  • New Day
    New Day
  • Lake Michigan Sunrise
    Lake Michigan Sunrise
  • sunset from izmir, narlıdere
    sunset from izmir, narlıdere
  • oregon cherry
    oregon cherry

WunderPhotos

Upload Photos

1,702,159 photos uploaded!

WunderBlogs® & News

Nearby

Snow Depth

Station Depth Elevation
No new snow has been reported.

Coastal Water Temperatures

Place Temperature
No Stations Reporting

Earthquake Activity

City Distance Mag. Time & Date
No recent earthquake activity has been reported nearby.
Minimum magnitude displayed is 2.5.

Nearby Weather Stations

Station Location Temp. Heat Index Dew Point Humidity Wind Precip. Elev Updated Type
Kennett E911, Kennett, MO 68.0 °F - 46 °F 45% ESE  at  2.0 mph 0.00 in / hr 269 ft 6:06 PM CDT Rapid Fire
KC0UFP WX, Kennett, MO 69.6 °F - 46 °F 43% SE  at  1.7 mph - / hr 259 ft 5:55 PM CDT Normal
Peach Orchard, Gideon, MO 67.7 °F - 46 °F 45% SSE  at  0.0 mph 0.00 in / hr 253 ft 6:06 PM CDT Rapid Fire
MesoWest PIGGOT , Piggott, AR 74 °F 72 °F - - North  at  - 0.00 in / hr 287 ft 4:45 PM CDT MADIS
MesoWest GRNWAY , Rector, AR 68 °F - - - North  at  - 0.00 in / hr 293 ft 5:05 PM CDT MADIS

Show More Stations Show Fewer Stations

What do you think?

We're not finished. Please let us know what you like, what you don't like, and what you are still missing.